Time;durP1;ratioP1;P1;durP2;ratioP2;P2;SDS_P1;SDS_P2;PMS_P1;PMS_P2;Temp;Humidity;BMP_temperature;BMP_pressure;BME280_temperature;BME280_humidity;BME280_pressure;Samples;Min_cycle;Max_cycle;Signal;HPM_P1;HPM_P2
2022/03/21 00:01:06;;;;;;;72.25;30.10;;;;;;;-0.92;88.54;102961.19;5092893;28;20028;-81
2022/03/21 00:03:31;;;;;;;74.40;29.40;;;;;;;-0.96;89.19;102960.16;5055207;28;20493;-82
2022/03/21 00:05:59;;;;;;;70.80;30.15;;;;;;;-0.97;89.33;102960.94;5092517;28;20020;-81
2022/03/21 00:08:25;;;;;;;70.10;29.48;;;;;;;-0.99;89.28;102967.59;5092838;28;20024;-81
2022/03/21 00:10:54;;;;;;;71.90;31.20;;;;;;;-1.01;89.53;102963.19;5092176;28;20040;-81
2022/03/21 00:13:20;;;;;;;74.22;30.60;;;;;;;-1.05;89.46;102958.72;5105973;28;20028;-81
2022/03/21 00:15:46;;;;;;;71.30;30.02;;;;;;;-1.07;89.10;102966.28;5073711;28;20023;-81
2022/03/21 00:18:16;;;;;;;69.65;29.27;;;;;;;-1.12;89.01;102967.69;5092148;28;20473;-81
2022/03/21 00:20:43;;;;;;;70.72;29.90;;;;;;;-1.17;89.12;102974.19;5092529;28;20023;-81
2022/03/21 00:23:09;;;;;;;70.15;29.75;;;;;;;-1.16;89.47;102969.97;5095882;28;20035;-81
2022/03/21 00:25:35;;;;;;;70.63;29.60;;;;;;;-1.19;89.43;102983.38;5104900;28;20035;-81
2022/03/21 00:28:00;;;;;;;77.00;30.25;;;;;;;-1.21;89.52;102984.94;5094906;28;20024;-81
2022/03/21 00:30:27;;;;;;;74.72;30.58;;;;;;;-1.25;89.28;102973.72;5122558;28;20019;-81
2022/03/21 00:32:52;;;;;;;73.13;30.27;;;;;;;-1.29;89.35;102978.53;5120426;28;20067;-81
2022/03/21 00:35:19;;;;;;;75.10;30.63;;;;;;;-1.30;89.51;102982.75;5075222;28;20438;-81
2022/03/21 00:37:45;;;;;;;75.22;30.88;;;;;;;-1.29;90.18;102981.06;5102833;28;20036;-81
2022/03/21 00:40:13;;;;;;;70.65;29.42;;;;;;;-1.30;90.28;102989.50;5091941;28;20020;-81
2022/03/21 00:42:40;;;;;;;74.72;30.25;;;;;;;-1.33;89.70;102991.88;5090111;28;20020;-82
2022/03/21 00:45:09;;;;;;;76.85;31.15;;;;;;;-1.38;88.78;102993.25;5100957;28;20028;-82
2022/03/21 00:47:34;;;;;;;73.72;30.27;;;;;;;-1.35;89.69;102999.41;5073803;28;20096;-81
2022/03/21 00:50:00;;;;;;;73.30;30.30;;;;;;;-1.36;90.12;102987.47;5101552;28;20047;-81
2022/03/21 00:52:25;;;;;;;73.15;30.98;;;;;;;-1.37;90.21;102990.81;5095878;28;20222;-81
2022/03/21 00:54:50;;;;;;;73.40;30.30;;;;;;;-1.41;89.08;102991.41;5092095;28;20439;-81
2022/03/21 00:57:16;;;;;;;74.32;30.52;;;;;;;-1.39;89.83;102996.59;5090966;28;20522;-81
2022/03/21 00:59:41;;;;;;;72.80;29.38;;;;;;;-1.40;89.92;102992.28;5098196;28;20028;-81
2022/03/21 01:02:08;;;;;;;72.47;29.80;;;;;;;-1.42;88.98;102993.84;5077058;28;20028;-81
2022/03/21 01:04:35;;;;;;;72.60;30.58;;;;;;;-1.41;89.51;103004.13;5073090;28;20485;-81
2022/03/21 01:07:01;;;;;;;69.50;29.60;;;;;;;-1.41;89.66;103001.56;5089819;28;20126;-81
2022/03/21 01:09:27;;;;;;;75.28;30.48;;;;;;;-1.44;89.03;103006.50;5091220;28;20441;-81
2022/03/21 01:11:52;;;;;;;73.53;30.20;;;;;;;-1.42;90.09;103006.56;5096474;28;20043;-81
2022/03/21 01:14:17;;;;;;;72.63;29.70;;;;;;;-1.42;90.26;103011.66;5076764;28;20490;-81
2022/03/21 01:16:43;;;;;;;75.43;31.30;;;;;;;-1.41;90.98;103013.41;5093652;28;20031;-81
2022/03/21 01:19:09;;;;;;;74.97;30.40;;;;;;;-1.39;91.40;103007.66;5090443;28;20027;-81
2022/03/21 01:21:34;;;;;;;77.20;30.95;;;;;;;-1.34;91.75;103013.00;5090602;28;20039;-81
2022/03/21 01:24:00;;;;;;;78.75;30.63;;;;;;;-1.36;91.65;103012.91;5109602;28;20107;-81
2022/03/21 01:26:25;;;;;;;75.20;30.20;;;;;;;-1.38;91.23;103011.94;5098829;28;20413;-81
2022/03/21 01:28:50;;;;;;;72.32;29.25;;;;;;;-1.41;90.91;103008.31;5104341;28;20424;-81
2022/03/21 01:31:16;;;;;;;76.82;29.50;;;;;;;-1.44;90.97;103008.16;5089638;28;20030;-81
2022/03/21 01:33:41;;;;;;;74.28;29.98;;;;;;;-1.46;91.17;103022.44;5092814;28;20434;-81
2022/03/21 01:36:07;;;;;;;72.47;29.33;;;;;;;-1.50;91.34;103016.28;5091285;28;20015;-81
2022/03/21 01:38:33;;;;;;;76.10;31.13;;;;;;;-1.51;91.81;103018.75;5103916;28;20019;-81
2022/03/21 01:40:58;;;;;;;75.35;31.20;;;;;;;-1.50;91.92;103023.06;5072548;28;20036;-82
2022/03/21 01:43:23;;;;;;;72.22;29.48;;;;;;;-1.51;91.84;103016.22;5094305;28;20385;-82
2022/03/21 01:45:49;;;;;;;77.43;29.95;;;;;;;-1.52;91.97;103011.91;5073733;28;20028;-82
2022/03/21 01:48:14;;;;;;;72.75;30.58;;;;;;;-1.53;91.84;103018.66;5103843;28;20069;-82
2022/03/21 01:50:44;;;;;;;73.28;29.98;;;;;;;-1.55;91.50;103022.75;5103700;28;20054;-82
2022/03/21 01:55:57;;;;;;;70.15;29.05;;;;;;;-1.61;91.42;103017.31;5085692;28;20050;-82
2022/03/21 01:58:24;;;;;;;70.60;29.88;;;;;;;-1.62;91.42;103013.00;5093955;28;20024;-82
2022/03/21 02:00:51;;;;;;;81.22;31.30;;;;;;;-1.63;91.44;103016.31;5089400;28;20028;-82
2022/03/21 02:03:19;;;;;;;79.43;31.48;;;;;;;-1.64;91.93;103015.44;5089151;28;20024;-82
2022/03/21 02:05:47;;;;;;;73.47;30.88;;;;;;;-1.65;91.63;103011.19;5099758;28;20451;-82
2022/03/21 02:08:13;;;;;;;72.05;29.90;;;;;;;-1.70;90.99;103012.53;5099787;28;20107;-82
2022/03/21 02:10:38;;;;;;;75.75;29.63;;;;;;;-1.74;90.95;103018.22;5077058;28;20072;-82
2022/03/21 02:13:05;;;;;;;77.82;31.30;;;;;;;-1.74;91.68;103022.44;5098183;28;20039;-82
2022/03/21 02:15:31;;;;;;;76.60;29.20;;;;;;;-1.77;91.49;103020.56;5100798;28;20020;-82
2022/03/21 02:18:01;;;;;;;72.85;29.08;;;;;;;-1.81;91.54;103017.75;5097711;28;20022;-82
2022/03/21 02:20:30;;;;;;;78.40;30.42;;;;;;;-1.81;91.81;103010.13;5073087;28;20587;-82
2022/03/21 02:23:22;;;;;;;78.50;30.30;;;;;;;-1.80;92.27;103020.41;5093982;28;20030;-82
2022/03/21 02:25:49;;;;;;;73.50;29.17;;;;;;;-1.81;92.08;103017.75;5098912;28;20039;-82
2022/03/21 02:28:16;;;;;;;72.35;29.05;;;;;;;-1.83;91.03;103017.66;5103845;28;20085;-82
2022/03/21 02:30:45;;;;;;;72.30;30.05;;;;;;;-1.85;91.49;103009.09;5088963;28;20032;-82
2022/03/21 02:33:11;;;;;;;73.65;29.73;;;;;;;-1.84;91.81;103017.59;5103051;28;20404;-82
2022/03/21 02:35:38;;;;;;;75.30;29.65;;;;;;;-1.85;91.49;103016.72;5089595;28;20039;-82
2022/03/21 02:38:06;;;;;;;69.78;28.85;;;;;;;-1.88;91.22;103020.72;5093505;28;20011;-82
2022/03/21 02:40:32;;;;;;;74.47;29.70;;;;;;;-1.90;91.28;103018.06;5096989;28;20039;-82
2022/03/21 02:42:57;;;;;;;70.38;29.13;;;;;;;-1.92;91.63;103022.19;5069971;28;20301;-82
2022/03/21 02:45:23;;;;;;;76.78;30.25;;;;;;;-1.90;92.01;103012.97;5095880;28;20508;-82
2022/03/21 02:47:48;;;;;;;77.78;29.98;;;;;;;-1.87;92.44;103023.34;5083200;28;20039;-82
2022/03/21 02:50:19;;;;;;;75.32;30.13;;;;;;;-1.87;92.28;103017.38;5071097;28;20032;-82
2022/03/21 02:52:47;;;;;;;71.60;29.13;;;;;;;-1.85;92.56;103020.91;5104884;28;20024;-82
2022/03/21 02:55:13;;;;;;;78.43;30.88;;;;;;;-1.84;92.91;103020.97;5118693;28;20027;-82
2022/03/21 02:57:38;;;;;;;71.45;29.40;;;;;;;-1.83;93.12;103019.31;5119703;28;20019;-82
2022/03/21 03:00:04;;;;;;;75.47;30.05;;;;;;;-1.81;92.97;103018.63;5095414;28;20028;-82
2022/03/21 03:02:30;;;;;;;77.45;29.98;;;;;;;-1.79;92.83;103024.72;5088473;28;20530;-82
2022/03/21 03:04:55;;;;;;;77.90;30.42;;;;;;;-1.79;92.78;103026.38;5094551;28;20020;-82
2022/03/21 03:07:20;;;;;;;70.00;29.52;;;;;;;-1.83;92.80;103020.19;5094572;28;20064;-83
2022/03/21 03:09:45;;;;;;;70.20;29.08;;;;;;;-1.84;91.81;103017.59;5083984;28;20050;-82
2022/03/21 03:12:11;;;;;;;69.60;28.75;;;;;;;-1.89;91.34;103018.94;5088412;28;20459;-82
2022/03/21 03:14:36;;;;;;;73.18;28.50;;;;;;;-1.91;91.81;103018.00;5069636;28;20024;-82
2022/03/21 03:17:02;;;;;;;72.47;29.83;;;;;;;-1.93;92.09;103012.81;5094971;28;20028;-82
2022/03/21 03:19:28;;;;;;;75.55;30.65;;;;;;;-1.94;92.44;103017.78;5072548;28;20492;-82
2022/03/21 03:21:54;;;;;;;73.22;29.38;;;;;;;-1.95;91.93;103018.56;5088077;28;20030;-82
2022/03/21 03:24:22;;;;;;;75.43;30.08;;;;;;;-1.98;92.04;103015.84;5093724;28;20517;-82
2022/03/21 03:26:47;;;;;;;76.75;30.80;;;;;;;-2.01;92.08;103019.97;5095635;28;20581;-82
2022/03/21 03:29:12;;;;;;;76.28;30.08;;;;;;;-2.04;91.81;103022.28;5092432;28;20571;-82
2022/03/21 03:31:39;;;;;;;72.57;29.63;;;;;;;-2.07;91.77;103017.03;5093499;28;20028;-82
2022/03/21 03:34:04;;;;;;;71.70;28.75;;;;;;;-2.08;92.01;103027.09;5088610;28;20506;-82
2022/03/21 03:36:29;;;;;;;76.82;31.00;;;;;;;-2.10;92.00;103023.56;5076423;28;20553;-82
2022/03/21 03:38:55;;;;;;;72.38;30.20;;;;;;;-2.12;92.16;103026.03;5092387;28;20171;-82
2022/03/21 03:41:20;;;;;;;76.32;30.70;;;;;;;-2.12;92.41;103027.69;5071984;28;20028;-82
2022/03/21 03:43:48;;;;;;;74.45;30.20;;;;;;;-2.13;92.73;103029.34;5095743;28;20031;-82
2022/03/21 03:46:16;;;;;;;71.15;29.42;;;;;;;-2.12;92.67;103032.78;5090845;28;20032;-82
2022/03/21 03:48:42;;;;;;;79.72;30.02;;;;;;;-2.11;93.06;103029.44;5086816;28;20027;-82
2022/03/21 03:51:08;;;;;;;75.80;30.38;;;;;;;-2.08;93.24;103029.63;5098177;28;20032;-82
2022/03/21 03:53:33;;;;;;;75.03;30.05;;;;;;;-2.08;93.02;103027.09;5106672;28;20027;-82
2022/03/21 03:55:59;;;;;;;76.32;28.92;;;;;;;-2.07;93.03;103031.41;5098233;28;20019;-82
2022/03/21 03:58:24;;;;;;;79.75;29.70;;;;;;;-2.06;93.13;103031.50;5108032;28;20168;-82
2022/03/21 04:00:51;;;;;;;75.93;30.42;;;;;;;-2.04;93.32;103029.91;5099668;28;20030;-82
2022/03/21 04:06:01;;;;;;;76.18;30.13;;;;;;;-2.06;92.90;103041.66;5088432;28;20043;-82
2022/03/21 04:08:26;;;;;;;70.35;28.48;;;;;;;-2.06;93.18;103039.13;5081586;28;20021;-82
2022/03/21 04:10:51;;;;;;;74.30;29.00;;;;;;;-2.08;92.96;103034.72;5094480;28;20047;-82
2022/03/21 04:13:17;;;;;;;73.22;29.02;;;;;;;-2.09;92.55;103032.97;5096447;28;20475;-82
2022/03/21 04:15:42;;;;;;;74.85;28.73;;;;;;;-2.11;92.85;103034.50;5096742;28;20027;-82
2022/03/21 04:18:07;;;;;;;73.97;29.48;;;;;;;-2.12;92.66;103037.88;5103532;28;20068;-82
2022/03/21 04:20:33;;;;;;;76.30;30.80;;;;;;;-2.15;92.83;103037.66;5094699;28;20024;-82
2022/03/21 04:22:59;;;;;;;79.63;30.67;;;;;;;-2.16;93.43;103028.28;5095057;28;20051;-82
2022/03/21 04:25:25;;;;;;;77.07;29.67;;;;;;;-2.16;93.46;103034.22;5076759;28;20024;-82
2022/03/21 04:27:50;;;;;;;72.95;29.08;;;;;;;-2.16;93.20;103030.81;5093780;28;20073;-82
2022/03/21 04:30:16;;;;;;;74.15;29.48;;;;;;;-2.17;93.07;103029.94;5091734;28;20028;-82
2022/03/21 04:32:43;;;;;;;69.45;29.25;;;;;;;-2.19;93.21;103031.53;5097206;28;20024;-82
2022/03/21 04:35:10;;;;;;;74.82;30.02;;;;;;;-2.17;93.48;103032.47;5075072;28;20016;-82
2022/03/21 04:37:35;;;;;;;76.10;29.30;;;;;;;-2.17;93.56;103031.59;5096621;28;20032;-82
2022/03/21 04:40:01;;;;;;;77.95;30.13;;;;;;;-2.20;93.47;103037.38;5072814;28;20397;-82
2022/03/21 04:42:26;;;;;;;85.13;31.75;;;;;;;-2.21;93.59;103035.63;5094580;28;20520;-83
2022/03/21 04:44:52;;;;;;;72.82;29.67;;;;;;;-2.22;93.25;103043.13;5102567;28;20111;-83
2022/03/21 04:47:19;;;;;;;82.22;29.35;;;;;;;-2.21;93.59;103048.31;5098260;28;20526;-82
2022/03/21 04:49:45;;;;;;;78.68;30.17;;;;;;;-2.22;93.05;103045.66;5096825;28;20115;-82
2022/03/21 04:52:10;;;;;;;73.25;28.67;;;;;;;-2.24;93.77;103040.47;5094452;28;20119;-82
2022/03/21 04:54:35;;;;;;;87.13;30.92;;;;;;;-2.26;93.40;103039.53;5097132;28;20028;-82
2022/03/21 04:57:00;;;;;;;79.75;29.48;;;;;;;-2.26;93.30;103043.72;5097135;28;20072;-82
2022/03/21 04:59:26;;;;;;;76.90;29.35;;;;;;;-2.28;93.36;103037.66;5103469;28;20028;-83
2022/03/21 05:01:52;;;;;;;78.75;30.00;;;;;;;-2.29;93.53;103048.59;5089519;28;20024;-83
2022/03/21 05:04:18;;;;;;;80.15;30.25;;;;;;;-2.29;93.74;103052.03;5076916;28;20035;-83
2022/03/21 05:06:44;;;;;;;80.80;30.20;;;;;;;-2.28;93.95;103052.91;5092705;28;20027;-83
2022/03/21 05:09:09;;;;;;;77.47;28.83;;;;;;;-2.29;93.66;103056.22;5106846;28;20373;-82
2022/03/21 05:11:34;;;;;;;78.70;29.75;;;;;;;-2.30;93.51;103060.41;5099172;28;20417;-82
2022/03/21 05:14:00;;;;;;;76.73;29.00;;;;;;;-2.33;93.33;103061.91;5071682;28;20039;-82
2022/03/21 05:16:25;;;;;;;77.50;28.20;;;;;;;-2.35;93.38;103054.19;5072784;28;20341;-82
2022/03/21 05:18:50;;;;;;;76.82;28.58;;;;;;;-2.36;93.65;103056.59;5088089;28;20023;-83
2022/03/21 05:21:16;;;;;;;78.15;29.58;;;;;;;-2.38;93.48;103057.38;5095283;28;20181;-83
2022/03/21 05:31:54;;;;;;;81.38;30.20;;;;;;;-2.36;93.80;103059.16;5098985;28;20147;-82
2022/03/21 05:37:04;;;;;;;72.10;27.75;;;;;;;-2.37;93.40;103063.34;5090302;28;20074;-82
2022/03/21 05:39:29;;;;;;;73.47;27.77;;;;;;;-2.35;93.40;103066.00;5090282;28;20032;-82
2022/03/21 05:41:54;;;;;;;70.10;27.90;;;;;;;-2.33;93.72;103072.94;5089127;28;20107;-83
2022/03/21 05:44:20;;;;;;;73.45;27.90;;;;;;;-2.33;93.73;103066.97;5090345;28;20019;-82
2022/03/21 05:46:46;;;;;;;72.63;28.63;;;;;;;-2.32;93.61;103068.75;5097553;28;20028;-82
2022/03/21 05:49:12;;;;;;;75.68;28.45;;;;;;;-2.29;93.90;103068.91;5095361;28;20267;-82
2022/03/21 05:51:40;;;;;;;75.60;29.08;;;;;;;-2.27;94.17;103059.75;5074961;28;20123;-82
2022/03/21 05:54:10;;;;;;;69.93;27.30;;;;;;;-2.25;94.28;103053.97;5073988;28;20038;-82
2022/03/21 05:56:38;;;;;;;70.75;27.38;;;;;;;-2.20;94.58;103054.28;5088064;28;20057;-82
2022/03/21 06:01:49;;;;;;;73.85;28.55;;;;;;;-2.04;95.11;103057.88;5093383;28;20392;-82
2022/03/21 06:04:15;;;;;;;81.93;29.63;;;;;;;-1.96;95.03;103060.88;5093906;28;20028;-82
2022/03/21 06:06:41;;;;;;;75.00;28.80;;;;;;;-1.88;94.79;103064.78;5094625;28;20020;-82
2022/03/21 06:09:06;;;;;;;78.47;29.17;;;;;;;-1.77;94.92;103065.44;5091813;28;20031;-82
2022/03/21 06:11:31;;;;;;;83.70;30.48;;;;;;;-1.69;94.93;103064.25;5088480;28;20047;-82
2022/03/21 06:13:57;;;;;;;93.20;30.35;;;;;;;-1.63;94.87;103062.97;5095435;28;20028;-82
2022/03/21 06:16:22;;;;;;;92.88;30.58;;;;;;;-1.50;94.98;103066.28;5093339;28;20406;-82
2022/03/21 06:18:48;;;;;;;87.13;30.15;;;;;;;-1.36;95.04;103076.47;5089708;28;20387;-83
2022/03/21 06:21:13;;;;;;;84.70;29.90;;;;;;;-1.22;94.96;103069.69;5110820;28;20407;-82
2022/03/21 06:23:39;;;;;;;79.38;29.17;;;;;;;-1.06;94.76;103076.56;5081827;28;20019;-82
2022/03/21 06:26:05;;;;;;;85.28;30.00;;;;;;;-0.87;94.47;103081.94;5094178;28;20031;-82
2022/03/21 06:28:31;;;;;;;88.72;30.17;;;;;;;-0.67;94.11;103078.00;5106405;28;20019;-82
2022/03/21 06:30:57;;;;;;;78.00;28.10;;;;;;;-0.43;93.66;103079.44;5094757;28;20032;-83
2022/03/21 06:33:25;;;;;;;83.80;30.50;;;;;;;-0.11;93.07;103089.75;5088896;28;20093;-82
2022/03/21 06:35:50;;;;;;;79.93;28.17;;;;;;;0.01;91.66;103076.81;5088247;28;20032;-83
2022/03/21 06:38:16;;;;;;;77.85;28.25;;;;;;;0.45;93.05;103088.56;5089137;28;20108;-82
2022/03/21 06:40:42;;;;;;;85.47;30.20;;;;;;;1.56;92.36;103083.28;5090360;28;20058;-82
2022/03/21 06:43:09;;;;;;;74.55;27.38;;;;;;;2.87;86.57;103078.22;5089405;28;20105;-82
2022/03/21 06:45:34;;;;;;;65.28;25.95;;;;;;;3.73;83.08;103078.47;5089830;28;20031;-83
2022/03/21 06:48:00;;;;;;;62.90;25.67;;;;;;;4.59;79.59;103074.09;5091049;28;20093;-83
2022/03/21 06:50:26;;;;;;;61.28;24.88;;;;;;;5.07;75.70;103081.81;5071387;28;20190;-83
2022/03/21 06:52:52;;;;;;;54.67;23.90;;;;;;;5.23;74.91;103080.66;5089587;28;20020;-82
2022/03/21 06:55:19;;;;;;;50.63;23.33;;;;;;;5.68;72.48;103081.28;5073268;28;20418;-82
2022/03/21 06:57:45;;;;;;;53.60;23.45;;;;;;;5.82;72.12;103088.63;5090004;28;20486;-82
2022/03/21 07:00:13;;;;;;;51.50;23.25;;;;;;;6.01;71.65;103089.22;5095141;28;20062;-82
2022/03/21 07:02:39;;;;;;;48.63;22.88;;;;;;;6.42;70.45;103093.94;5089331;28;20400;-83
2022/03/21 07:05:06;;;;;;;56.25;24.63;;;;;;;7.33;69.04;103100.75;5090051;28;20473;-82
2022/03/21 07:07:31;;;;;;;49.53;23.02;;;;;;;7.85;67.64;103098.63;5102414;28;20187;-83
2022/03/21 07:09:57;;;;;;;47.50;22.50;;;;;;;7.84;65.18;103104.66;5071124;28;20092;-83
2022/03/21 07:12:23;;;;;;;51.38;22.35;;;;;;;7.43;66.34;103095.03;5096072;28;20281;-83
2022/03/21 07:14:49;;;;;;;45.45;21.88;;;;;;;6.74;67.31;103103.50;5102988;28;20023;-82
2022/03/21 07:17:17;;;;;;;50.65;22.20;;;;;;;6.17;69.24;103112.06;5089299;28;20137;-82
2022/03/21 07:19:43;;;;;;;50.15;22.02;;;;;;;5.81;70.44;103106.59;5089522;28;20016;-82
2022/03/21 07:22:08;;;;;;;48.38;21.75;;;;;;;5.54;71.11;103104.88;5108975;28;20482;-82
2022/03/21 07:24:34;;;;;;;48.40;21.87;;;;;;;5.26;72.03;103109.03;5109578;28;20020;-82
2022/03/21 07:26:59;;;;;;;44.58;21.02;;;;;;;5.00;72.80;103102.97;5092207;28;20643;-82
2022/03/21 07:29:25;;;;;;;54.08;21.42;;;;;;;4.74;74.28;103107.19;5096134;28;20032;-82
2022/03/21 07:31:50;;;;;;;42.55;19.40;;;;;;;4.89;75.06;103106.88;5093490;28;20028;-82
2022/03/21 07:34:15;;;;;;;47.83;21.25;;;;;;;5.05;74.09;103107.44;5083628;28;20024;-82
2022/03/21 07:36:41;;;;;;;41.40;20.00;;;;;;;5.10;73.51;103112.78;5090177;28;20024;-82
2022/03/21 07:39:06;;;;;;;38.42;18.60;;;;;;;5.06;74.39;103108.31;5082537;28;20270;-82
2022/03/21 07:41:31;;;;;;;40.05;18.80;;;;;;;5.30;75.58;103108.31;5093058;28;20427;-82
2022/03/21 07:43:58;;;;;;;39.03;19.63;;;;;;;5.67;75.57;103105.25;5093144;28;20378;-82
2022/03/21 07:49:11;;;;;;;34.75;17.98;;;;;;;6.02;74.80;103109.88;5104605;28;20043;-82
2022/03/21 07:51:37;;;;;;;38.70;18.70;;;;;;;6.12;75.83;103111.94;5111274;28;20019;-82
2022/03/21 07:54:02;;;;;;;33.65;17.58;;;;;;;6.47;75.02;103110.41;5098165;28;20016;-83
2022/03/21 07:56:28;;;;;;;35.10;18.17;;;;;;;6.58;76.97;103110.72;5102717;28;20032;-82
2022/03/21 07:58:54;;;;;;;34.72;18.70;;;;;;;6.84;76.08;103106.31;5115719;28;20016;-83
2022/03/21 08:01:20;;;;;;;37.67;18.83;;;;;;;7.13;74.94;103115.72;5104248;28;20026;-82
2022/03/21 08:03:46;;;;;;;34.80;18.70;;;;;;;7.34;75.09;103118.00;5068898;28;20024;-82
2022/03/21 08:06:12;;;;;;;34.25;18.17;;;;;;;7.67;74.15;103120.56;5081357;28;20085;-82
2022/03/21 08:08:38;;;;;;;36.47;19.60;;;;;;;7.92;74.02;103113.44;5074707;28;20028;-82
2022/03/21 08:11:05;;;;;;;34.28;18.85;;;;;;;8.29;74.03;103106.53;5092916;28;20101;-82
2022/03/21 08:13:33;;;;;;;38.05;19.42;;;;;;;9.18;72.36;103107.53;5095312;28;20024;-82
2022/03/21 08:15:59;;;;;;;37.15;19.52;;;;;;;10.39;71.08;103108.63;5092634;28;20024;-82
2022/03/21 08:18:25;;;;;;;37.47;19.10;;;;;;;11.39;66.86;103112.38;5090585;28;20031;-83
2022/03/21 08:20:50;;;;;;;39.15;19.25;;;;;;;12.21;66.62;103117.38;5099028;28;20118;-82
2022/03/21 08:23:16;;;;;;;34.55;19.30;;;;;;;13.08;63.08;103105.59;5070164;28;20024;-82
2022/03/21 08:25:45;;;;;;;34.03;19.42;;;;;;;14.24;62.09;103109.06;5092127;28;20057;-82
2022/03/21 08:28:11;;;;;;;31.05;17.95;;;;;;;15.14;57.57;103108.69;5097805;28;20028;-82
2022/03/21 08:30:38;;;;;;;28.67;16.35;;;;;;;16.04;55.02;103103.59;5075431;28;20578;-83
2022/03/21 08:33:06;;;;;;;29.70;16.83;;;;;;;16.66;53.23;103096.81;5073542;28;20026;-83
2022/03/21 08:35:32;;;;;;;29.73;16.40;;;;;;;16.83;50.29;103094.84;5094361;28;20020;-83
2022/03/21 08:37:57;;;;;;;29.88;16.10;;;;;;;16.68;48.87;103108.13;5092511;28;20031;-83
2022/03/21 08:40:23;;;;;;;28.08;15.80;;;;;;;16.55;50.73;103103.03;5090822;28;20039;-82
2022/03/21 08:42:48;;;;;;;26.38;16.25;;;;;;;16.38;47.63;103101.47;5078558;28;20112;-82
2022/03/21 08:45:15;;;;;;;30.02;16.23;;;;;;;16.41;52.85;103096.22;5091579;28;20450;-83
2022/03/21 08:47:41;;;;;;;29.70;16.23;;;;;;;16.26;47.86;103104.25;5092397;28;20116;-83
2022/03/21 08:50:07;;;;;;;33.60;15.55;;;;;;;16.14;49.14;103095.66;5102419;28;20059;-84
2022/03/21 08:52:33;;;;;;;32.30;16.50;;;;;;;16.19;51.29;103101.69;5090742;28;20428;-83
2022/03/21 08:54:58;;;;;;;25.20;14.73;;;;;;;15.91;47.18;103097.63;5081735;28;20034;-83
2022/03/21 08:57:23;;;;;;;28.35;15.45;;;;;;;15.34;49.58;103104.19;5091935;28;20024;-84
2022/03/21 08:59:52;;;;;;;23.83;14.35;;;;;;;15.11;49.96;103103.47;5074133;28;20020;-83
2022/03/21 09:02:18;;;;;;;28.42;14.70;;;;;;;15.27;50.35;103107.75;5091128;28;20035;-84
2022/03/21 09:04:44;;;;;;;27.55;14.82;;;;;;;15.46;49.89;103103.25;5072460;28;20016;-83
2022/03/21 09:07:09;;;;;;;26.63;14.45;;;;;;;15.35;48.57;103096.31;5092108;28;20035;-83
2022/03/21 09:09:34;;;;;;;26.33;15.07;;;;;;;15.34;50.91;103102.47;5097831;28;20122;-83
2022/03/21 09:12:00;;;;;;;27.08;15.75;;;;;;;15.33;50.76;103112.91;5091630;28;20027;-83
2022/03/21 09:14:26;;;;;;;33.22;17.42;;;;;;;15.38;51.81;103108.53;5091447;28;20028;-83
2022/03/21 09:16:52;;;;;;;41.13;21.48;;;;;;;15.45;50.73;103102.38;5101589;28;20247;-83
2022/03/21 09:19:19;;;;;;;25.27;14.93;;;;;;;15.20;49.14;103098.22;5091484;28;20169;-83
2022/03/21 09:21:45;;;;;;;22.67;14.70;;;;;;;14.87;50.96;103088.84;5090986;28;20052;-83
2022/03/21 09:24:11;;;;;;;46.47;22.67;;;;;;;14.57;53.52;103097.69;5095086;28;20473;-83
2022/03/21 09:26:36;;;;;;;40.90;19.17;;;;;;;14.70;52.78;103098.47;5103505;28;20043;-83
2022/03/21 09:29:03;;;;;;;203.65;68.82;;;;;;;14.96;53.92;103094.84;5099920;28;20055;-83
2022/03/21 09:31:29;;;;;;;42.15;19.65;;;;;;;15.00;51.12;103091.38;5091560;28;20502;-83
2022/03/21 09:33:55;;;;;;;30.65;15.70;;;;;;;14.83;51.45;103087.97;5091348;28;20466;-83
2022/03/21 09:36:21;;;;;;;25.77;15.18;;;;;;;14.56;50.15;103086.38;5090473;28;20665;-82
2022/03/21 09:38:46;;;;;;;25.38;15.18;;;;;;;14.38;53.70;103088.19;5072695;28;20020;-83
2022/03/21 09:41:13;;;;;;;25.45;15.02;;;;;;;14.24;54.22;103089.06;5091493;28;20098;-84
2022/03/21 09:43:39;;;;;;;28.10;14.57;;;;;;;14.16;52.99;103085.59;5089695;28;20381;-84
2022/03/21 09:46:07;;;;;;;27.95;15.18;;;;;;;14.04;52.42;103088.25;5089479;28;20493;-84
2022/03/21 09:48:34;;;;;;;29.90;14.82;;;;;;;14.06;51.16;103086.50;5071817;28;20040;-83
2022/03/21 09:51:01;;;;;;;25.83;14.68;;;;;;;14.10;52.58;103085.63;5084375;28;20042;-83
2022/03/21 09:53:28;;;;;;;30.40;14.65;;;;;;;14.13;52.77;103079.50;5081626;28;20456;-83
2022/03/21 09:55:54;;;;;;;27.05;14.32;;;;;;;14.04;51.93;103077.81;5072684;28;20027;-83
2022/03/21 09:58:20;;;;;;;24.33;13.85;;;;;;;13.89;50.91;103077.84;5084027;28;20051;-83
2022/03/21 10:00:47;;;;;;;27.10;14.30;;;;;;;13.83;53.45;103072.63;5091061;28;20111;-84
2022/03/21 10:03:13;;;;;;;23.45;14.27;;;;;;;13.81;52.50;103075.25;5082343;28;20053;-83
2022/03/21 10:05:49;;;;;;;28.73;14.65;;;;;;;13.79;52.03;103073.50;5086577;28;20575;-84
2022/03/21 10:08:23;;;;;;;27.77;14.88;;;;;;;13.87;51.46;103073.50;5091196;28;20024;-84
2022/03/21 10:11:05;;;;;;;27.67;14.98;;;;;;;13.85;51.15;103074.34;5090239;28;20130;-84
2022/03/21 10:13:33;;;;;;;28.77;14.82;;;;;;;13.79;50.75;103068.28;5090911;28;20019;-84
2022/03/21 10:16:08;;;;;;;29.73;14.73;;;;;;;13.82;52.66;103063.94;5090030;28;20073;-84
2022/03/21 10:18:34;;;;;;;30.77;14.23;;;;;;;13.89;52.51;103062.19;5090559;28;20105;-84
2022/03/21 10:21:12;;;;;;;31.27;15.93;;;;;;;13.99;52.96;103061.28;5089958;28;20024;-84
2022/03/21 10:23:38;;;;;;;33.67;17.98;;;;;;;14.12;51.95;103064.75;5094532;28;20028;-84
2022/03/21 10:26:42;;;;;;;28.67;15.30;;;;;;;14.25;53.21;103058.63;5110925;28;20059;-84
2022/03/21 10:29:11;;;;;;;26.95;14.75;;;;;;;14.39;51.59;103061.22;5088183;28;20046;-84
2022/03/21 10:31:41;;;;;;;26.88;14.45;;;;;;;14.40;49.31;103062.94;5090591;28;20024;-84
2022/03/21 10:34:12;;;;;;;26.10;14.57;;;;;;;14.32;50.02;103059.47;5090289;28;20044;-84
2022/03/21 10:36:57;;;;;;;31.75;15.77;;;;;;;14.47;52.32;103072.47;5093077;28;20051;-84
2022/03/21 10:39:22;;;;;;;29.35;15.35;;;;;;;14.44;51.47;103062.94;5110949;28;20034;-84
2022/03/21 10:41:55;;;;;;;30.92;15.93;;;;;;;14.46;51.04;103062.94;5079697;28;20028;-84
2022/03/21 10:44:20;;;;;;;32.97;16.08;;;;;;;14.45;52.15;103056.84;5102606;28;20034;-84
2022/03/21 10:46:51;;;;;;;32.08;16.02;;;;;;;14.42;49.76;103058.59;5110626;28;20027;-84
2022/03/21 10:49:27;;;;;;;26.67;15.07;;;;;;;14.28;49.28;103055.13;5110703;28;20821;-83
2022/03/21 10:51:54;;;;;;;26.15;14.63;;;;;;;14.38;51.67;103049.91;5083387;28;20020;-84
2022/03/21 10:54:39;;;;;;;28.45;15.50;;;;;;;14.61;52.19;103053.28;5089426;28;20507;-84
2022/03/21 10:57:23;;;;;;;31.38;15.77;;;;;;;14.67;49.04;103057.59;5086973;28;20032;-83
2022/03/21 10:59:48;;;;;;;;;;;;;;;14.76;52.75;103054.06;5089958;28;20085;-84
2022/03/21 11:02:17;;;;;;;28.53;15.80;;;;;;;14.88;50.10;103047.03;5089791;28;19911;-84
2022/03/21 11:04:44;;;;;;;30.88;15.88;;;;;;;14.95;49.75;103048.72;5089549;28;20055;-84
2022/03/21 11:07:13;;;;;;;32.28;16.08;;;;;;;14.96;49.47;103042.63;5089669;28;20497;-84
2022/03/21 11:09:42;;;;;;;33.13;17.02;;;;;;;15.00;49.38;103046.97;5089882;28;20063;-83
2022/03/21 11:12:09;;;;;;;33.72;17.30;;;;;;;15.06;49.71;103039.97;5087059;28;20024;-85
2022/03/21 11:14:39;;;;;;;30.95;16.63;;;;;;;15.07;49.94;103044.31;5089722;28;20040;-85
2022/03/21 11:17:05;;;;;;;30.42;16.63;;;;;;;14.98;48.84;103046.09;5087262;28;20027;-86
2022/03/21 11:19:32;;;;;;;31.60;17.50;;;;;;;14.96;49.01;103044.38;5094875;28;20141;-86
2022/03/21 11:21:59;;;;;;;35.30;17.88;;;;;;;15.04;50.69;103042.56;5087997;28;20077;-85
2022/03/21 11:24:25;;;;;;;30.83;17.63;;;;;;;15.10;50.39;103036.44;5088292;28;20401;-86
2022/03/21 11:27:33;;;;;;;29.95;17.67;;;;;;;15.20;51.67;103036.38;5071569;28;20488;-87
2022/03/21 11:30:11;;;;;;;37.13;18.00;;;;;;;15.28;49.79;103036.31;5068701;28;20101;-86
2022/03/21 11:33:07;;;;;;;33.35;17.08;;;;;;;15.34;51.28;103034.50;5088980;28;20031;-87